Cherokee, Kansas
Current Conditions -  °F | °C
As of 11:15 PM on Wednesday 26 Nov 2014 (Local Time) from KPTS Reporting Station
Overcast Overcast  
Wind Chill: 25°   Ceiling: 2400
Heat Index: 33°   Visibility: 10mi
Dew Point: 25°   Wind: 10mph
Humidity: 73%   Direction: 350°N
Pressure: 30.39"   Gusts: 21mph
Location:  37.35°N, 94.81°W
Report Text: KPTS 270515Z AUTO 35009G18KT 10SM OVC024 01/M04 A3039 RMK AO2 T00061037
Loading
Personal Weather Stations






























Interactive Weather Map New forecast layout! Learn more

10-Day Weather Forecast

Advertisements
Track Severe Weather on mobile